Latest  Newer  Older  Last 2 hours slideshow  Last 24 hours slideshow  Refresh every 5 minutes 
Current image  Latest image  Rain/snow radar  Cloud coverage sat images 

All time is UTC (add 2 hours to UTC in wintertime, 3 hours to UTC in DST for Latvia local time)

2020/04/02 20:50 EVRA 022050Z 21018G33KT 170V240 9999 SCT040 07/M01 Q0992 NOSIG
2020/04/02 20:50 EVLA 022050Z AUTO 21027G37KT 9999 OVC049/// 07/02 Q0992
2020/04/02 20:50 EVVA 022050Z AUTO 22031G42KT 9999 OVC027 07/03 Q0987
2020/04/02 20:50 EYKA 022050Z 21010KT 160V250 CAVOK 06/M03 Q1000
2020/04/02 20:50 EYPA 022050Z AUTO 21015G25KT 180V240 9999 BKN049/// 06/02 Q0995
2020/04/02 20:50 EYSA 022050Z 21019G29KT CAVOK 06/M00 Q0996 BLU NOSIG
2020/04/02 20:50 EYVI 022050Z 22014KT CAVOK 05/M03 Q1002 NOSIG

2020/04/02 21:00 EEKE 022100Z AUTO 25016G29KT 9999NDV SN FEW003 BKN007 OVC016 01/01 Q0984
2020/04/02 10:50 EEPU 021050Z 22019KT 9999 BKN018 08/04 Q0992
2020/04/02 20:50 EETN 022050Z 21020G32KT 9000 -SHRA FEW019CB OVC027 06/02 Q0979 R08/09//95 TEMPO 22026G45KT 2000 SHRA
2020/04/02 20:50 EETU 022050Z AUTO 21021KT 9999 OVC055/// 06/M01 Q0987
   RIGA AIRPORT     EVRA               56 55N  023 58E   10   X     T          6 LV
   LIEPAJA INTL     EVLA        26406  56 31N  021 06E    4   X                8 LV
   VENTPILS         EVVA               57 21N  021 33E    6   X                8 LV
   KAUNAS           EYKA               54 54N  023 55E   77   X     T          6 LT
   PALANGA INTL     EYPA               55 55N  021 03E   10   X                6 LT
   SIAULIAI INTL    EYSA               55 54N  023 24E  135   X     T          6 LT
   VILNIUS INTL     EYVI        26730  54 38N  025 17E  197   X     T          6 LT
   KARDLA           EEKA        26116  58 59N  022 50E    4   X                8 EE
   KURESSAARE       EEKE               58 14N  022 31E    4   X                8 EE
   PARNU            EEPU               58 25N  024 28E   14   X                8 EE
   TALLINN          EETN        26038  59 24N  024 49E   40   X     T          8 EE
   TARTU            EETU               58 19N  026 41E   67   X                8 EE